Seabourn Pride — C6FR5 — position and weather

sailwx.info

Track history (hours):
 
Tides and Currents Weather Stations Pressure Air Temp Water Temp Dewpoint Dewpoint Depression Visibility Wind Speed Wind Dir Waves Ship Positions

Seabourn Pride

Operator: Cunard Seabourn

Last reported at 2019-Oct-14 23:31 UTC. Time now 2019-Oct-17 16:44 UTC.
Position N 45°43' W 073°26'.

Length 134 m; draft 5.6 m.

Type: Ship. MMSI: 311084000.

Date/timePositionNaut miles runAvg speedWind from/ knotsBaromVisibWave heightAir tempDewpointWater temp
2019-Oct-14 23:31N 45°43' W 073°26'0 9.7
2019-Oct-14 23:30N 45°43' W 073°26'5 9.9
2019-Oct-14 23:00N 45°38' W 073°29'510.5
2019-Oct-14 22:31N 45°33' W 073°31'3 6.9
2019-Oct-14 22:00N 45°30' W 073°33'0 0.0
2019-Oct-14 21:30N 45°30' W 073°33'0 0.0
2019-Oct-14 21:01N 45°30' W 073°33'0 0.0
2019-Oct-14 20:31N 45°30' W 073°33'0 0.0
2019-Oct-14 20:01N 45°30' W 073°33'0 0.0
2019-Oct-14 19:31N 45°30' W 073°33'0 0.0
2019-Oct-14 19:01N 45°30' W 073°33'0 0.0
2019-Oct-14 18:30N 45°30' W 073°33'0 0.0
2019-Oct-14 18:01N 45°30' W 073°33'0 0.0
2019-Oct-14 17:30N 45°30' W 073°33'0 0.0
2019-Oct-14 17:01N 45°30' W 073°33'0 0.0
2019-Oct-14 16:31N 45°30' W 073°33'0 0.0
2019-Oct-14 16:01N 45°30' W 073°33'0 0.0
2019-Oct-14 15:30N 45°30' W 073°33'0 0.0
2019-Oct-14 15:01N 45°30' W 073°33'0 0.0
2019-Oct-14 14:31N 45°30' W 073°33'0 0.0
2019-Oct-14 14:01N 45°30' W 073°33'0 0.0
2019-Oct-14 13:31N 45°30' W 073°33'0 0.0
2019-Oct-14 13:01N 45°30' W 073°33'0 0.0
2019-Oct-14 12:30N 45°30' W 073°33'0 0.0
2019-Oct-14 12:01N 45°30' W 073°33'0 0.0
2019-Oct-14 11:31N 45°30' W 073°33'0 0.0
2019-Oct-14 11:00N 45°30' W 073°33'0 0.0
2019-Oct-14 10:30N 45°30' W 073°33'2 3.6
2019-Oct-14 10:01N 45°32' W 073°32'4 8.4
2019-Oct-14 09:30N 45°36' W 073°30'5 9.6
2019-Oct-14 09:01N 45°40' W 073°28'5 9.6
2019-Oct-14 08:30N 45°44' W 073°25'  
2019-Oct-08 03:04N 44°24' W 063°15'2 8.7
2019-Oct-08 02:53N 44°24' W 063°17'3 8.7
2019-Oct-08 02:30N 44°25' W 063°22'4 8.9
2019-Oct-08 02:00N 44°26' W 063°28'4 8.2
2019-Oct-08 01:30N 44°30' W 063°30'510.2
2019-Oct-08 01:00N 44°35' W 063°32'4 7.5
2019-Oct-08 00:30N 44°38' W 063°34'0 0.0
2019-Oct-08 00:00N 44°38' W 063°34'0 0.0
2019-Oct-07 23:30N 44°38' W 063°34'0 0.0
2019-Oct-07 23:00N 44°38' W 063°34'0 0.0
2019-Oct-07 22:30N 44°38' W 063°34'0 0.0
2019-Oct-07 22:00N 44°38' W 063°34'0 0.0
2019-Oct-07 21:30N 44°38' W 063°34'0 0.0
2019-Oct-07 21:00N 44°38' W 063°34'0 0.0
2019-Oct-07 20:30N 44°38' W 063°34'0 0.0
2019-Oct-07 20:00N 44°38' W 063°34'0 0.0
2019-Oct-07 19:30N 44°38' W 063°34'0 0.0
2019-Oct-07 19:00N 44°38' W 063°34'0 0.0
2019-Oct-07 18:30N 44°38' W 063°34'0 0.0
2019-Oct-07 18:00N 44°38' W 063°34'0 0.0
2019-Oct-07 17:30N 44°38' W 063°34'0 0.0
2019-Oct-07 17:00N 44°38' W 063°34'0 0.0
2019-Oct-07 16:30N 44°38' W 063°34'0 0.0
2019-Oct-07 16:00N 44°38' W 063°34'0 0.0
2019-Oct-07 15:30N 44°38' W 063°34'0 0.0
2019-Oct-07 15:00N 44°38' W 063°34'0 0.0
2019-Oct-07 14:27N 44°38' W 063°34'0 0.0
2019-Oct-07 13:57N 44°38' W 063°34'0 0.0
2019-Oct-07 13:30N 44°38' W 063°34'0 0.0
2019-Oct-07 13:00N 44°38' W 063°34'0 0.0
2019-Oct-07 12:30N 44°38' W 063°34'0 0.6
2019-Oct-07 12:00N 44°38' W 063°34'510.6
2019-Oct-07 11:31N 44°33' W 063°32'4 7.4
2019-Oct-07 11:00N 44°30' W 063°29'3 5.3
2019-Oct-07 10:30N 44°27' W 063°27'4 5.9
2019-Oct-07 09:53N 44°24' W 063°25'  
2019-Oct-05 01:15N 42°24' W 070°46'912.7
2019-Oct-05 00:31N 42°20' W 070°57'114.7
2019-Oct-05 00:29N 42°20' W 070°58'  
Track history (hours):
 
Tides and Currents Weather Stations Pressure Air Temp Water Temp Dewpoint Dewpoint Depression Visibility Wind Speed Wind Dir Waves Ship Positions

Seabourn Pride

Operator: Cunard Seabourn

Last reported at 2019-Oct-14 23:31 UTC. Time now 2019-Oct-17 16:44 UTC.
Position N 45°43' W 073°26'.

Length 134 m; draft 5.6 m.

Type: Ship. MMSI: 311084000.

Date/timePositionNaut miles runAvg speedWind from/ knotsBaromVisibWave heightAir tempDewpointWater temp
2019-Oct-14 23:31N 45°43' W 073°26'0 9.7
2019-Oct-14 23:30N 45°43' W 073°26'5 9.9
2019-Oct-14 23:00N 45°38' W 073°29'510.5
2019-Oct-14 22:31N 45°33' W 073°31'3 6.9
2019-Oct-14 22:00N 45°30' W 073°33'0 0.0
2019-Oct-14 21:30N 45°30' W 073°33'0 0.0
2019-Oct-14 21:01N 45°30' W 073°33'0 0.0
2019-Oct-14 20:31N 45°30' W 073°33'0 0.0
2019-Oct-14 20:01N 45°30' W 073°33'0 0.0
2019-Oct-14 19:31N 45°30' W 073°33'0 0.0
2019-Oct-14 19:01N 45°30' W 073°33'0 0.0
2019-Oct-14 18:30N 45°30' W 073°33'0 0.0
2019-Oct-14 18:01N 45°30' W 073°33'0 0.0
2019-Oct-14 17:30N 45°30' W 073°33'0 0.0
2019-Oct-14 17:01N 45°30' W 073°33'0 0.0
2019-Oct-14 16:31N 45°30' W 073°33'0 0.0
2019-Oct-14 16:01N 45°30' W 073°33'0 0.0
2019-Oct-14 15:30N 45°30' W 073°33'0 0.0
2019-Oct-14 15:01N 45°30' W 073°33'0 0.0
2019-Oct-14 14:31N 45°30' W 073°33'0 0.0
2019-Oct-14 14:01N 45°30' W 073°33'0 0.0
2019-Oct-14 13:31N 45°30' W 073°33'0 0.0
2019-Oct-14 13:01N 45°30' W 073°33'0 0.0
2019-Oct-14 12:30N 45°30' W 073°33'0 0.0
2019-Oct-14 12:01N 45°30' W 073°33'0 0.0
2019-Oct-14 11:31N 45°30' W 073°33'0 0.0
2019-Oct-14 11:00N 45°30' W 073°33'0 0.0
2019-Oct-14 10:30N 45°30' W 073°33'2 3.6
2019-Oct-14 10:01N 45°32' W 073°32'4 8.4
2019-Oct-14 09:30N 45°36' W 073°30'5 9.6
2019-Oct-14 09:01N 45°40' W 073°28'5 9.6
2019-Oct-14 08:30N 45°44' W 073°25'  
2019-Oct-08 03:04N 44°24' W 063°15'2 8.7
2019-Oct-08 02:53N 44°24' W 063°17'3 8.7
2019-Oct-08 02:30N 44°25' W 063°22'4 8.9
2019-Oct-08 02:00N 44°26' W 063°28'4 8.2
2019-Oct-08 01:30N 44°30' W 063°30'510.2
2019-Oct-08 01:00N 44°35' W 063°32'4 7.5
2019-Oct-08 00:30N 44°38' W 063°34'0 0.0
2019-Oct-08 00:00N 44°38' W 063°34'0 0.0
2019-Oct-07 23:30N 44°38' W 063°34'0 0.0
2019-Oct-07 23:00N 44°38' W 063°34'0 0.0
2019-Oct-07 22:30N 44°38' W 063°34'0 0.0
2019-Oct-07 22:00N 44°38' W 063°34'0 0.0
2019-Oct-07 21:30N 44°38' W 063°34'0 0.0
2019-Oct-07 21:00N 44°38' W 063°34'0 0.0
2019-Oct-07 20:30N 44°38' W 063°34'0 0.0
2019-Oct-07 20:00N 44°38' W 063°34'0 0.0
2019-Oct-07 19:30N 44°38' W 063°34'0 0.0
2019-Oct-07 19:00N 44°38' W 063°34'0 0.0
2019-Oct-07 18:30N 44°38' W 063°34'0 0.0
2019-Oct-07 18:00N 44°38' W 063°34'0 0.0
2019-Oct-07 17:30N 44°38' W 063°34'0 0.0
2019-Oct-07 17:00N 44°38' W 063°34'0 0.0
2019-Oct-07 16:30N 44°38' W 063°34'0 0.0
2019-Oct-07 16:00N 44°38' W 063°34'0 0.0
2019-Oct-07 15:30N 44°38' W 063°34'0 0.0
2019-Oct-07 15:00N 44°38' W 063°34'0 0.0
2019-Oct-07 14:27N 44°38' W 063°34'0 0.0
2019-Oct-07 13:57N 44°38' W 063°34'0 0.0
2019-Oct-07 13:30N 44°38' W 063°34'0 0.0
2019-Oct-07 13:00N 44°38' W 063°34'0 0.0
2019-Oct-07 12:30N 44°38' W 063°34'0 0.6
2019-Oct-07 12:00N 44°38' W 063°34'510.6
2019-Oct-07 11:31N 44°33' W 063°32'4 7.4
2019-Oct-07 11:00N 44°30' W 063°29'3 5.3
2019-Oct-07 10:30N 44°27' W 063°27'4 5.9
2019-Oct-07 09:53N 44°24' W 063°25'  
2019-Oct-05 01:15N 42°24' W 070°46'912.7
2019-Oct-05 00:31N 42°20' W 070°57'114.7
2019-Oct-05 00:29N 42°20' W 070°58'  

Dump ship's entire track history